createdAt,value
2023-04-23T00:01:18.650Z,34.50
2023-04-23T00:03:46.302Z,35.40
2023-04-23T00:06:13.773Z,35.87
2023-04-23T00:08:41.611Z,33.87
2023-04-23T00:11:09.947Z,36.60
2023-04-23T00:13:37.262Z,34.20
2023-04-23T00:16:04.848Z,35.23
2023-04-23T00:18:31.673Z,33.17
2023-04-23T00:20:58.804Z,33.80
2023-04-23T00:23:25.832Z,33.83
2023-04-23T00:25:52.645Z,33.07
2023-04-23T00:28:22.799Z,32.23
2023-04-23T00:30:52.734Z,34.40
2023-04-23T00:33:19.724Z,33.27
2023-04-23T00:35:46.685Z,32.23
2023-04-23T00:38:13.647Z,30.80
2023-04-23T00:40:46.914Z,32.40
2023-04-23T00:43:13.748Z,31.43
2023-04-23T00:45:43.855Z,31.30
2023-04-23T00:48:12.474Z,34.13
2023-04-23T00:50:42.597Z,33.33
2023-04-23T00:53:09.473Z,33.73
2023-04-23T00:55:36.479Z,33.87
2023-04-23T00:58:09.147Z,34.33
2023-04-23T01:00:46.355Z,35.70
2023-04-23T01:03:14.634Z,35.47
2023-04-23T01:05:42.929Z,34.87
2023-04-23T01:08:15.614Z,35.40
2023-04-23T01:10:47.237Z,35.23
2023-04-23T01:13:14.588Z,34.57
2023-04-23T01:15:41.868Z,34.77
2023-04-23T01:18:08.760Z,35.63
2023-04-23T01:20:36.076Z,34.67
2023-04-23T01:23:06.367Z,35.37
2023-04-23T01:25:33.197Z,35.90
2023-04-23T01:28:00.166Z,35.53
2023-04-23T01:30:27.699Z,35.73
2023-04-23T01:32:58.497Z,36.97
2023-04-23T01:35:26.316Z,35.80
2023-04-23T01:37:55.080Z,36.60
2023-04-23T01:40:21.815Z,35.67
2023-04-23T01:42:49.245Z,33.53
2023-04-23T01:45:17.751Z,35.10
2023-04-23T01:47:50.417Z,34.63
2023-04-23T01:50:17.305Z,35.30
2023-04-23T01:52:45.755Z,33.77
2023-04-23T01:55:12.799Z,33.23
2023-04-23T01:57:40.033Z,34.10
2023-04-23T02:00:11.662Z,33.70
2023-04-23T02:02:39.865Z,32.50
2023-04-23T02:05:18.545Z,31.77
2023-04-23T02:07:50.663Z,30.73
2023-04-23T02:10:18.794Z,31.07
2023-04-23T02:12:45.681Z,30.53
2023-04-23T02:15:13.661Z,30.17
2023-04-23T02:17:40.684Z,30.40
2023-04-23T02:20:11.441Z,30.10
2023-04-23T02:22:42.688Z,29.20
2023-04-23T02:25:10.529Z,29.33
2023-04-23T02:27:37.510Z,26.47
2023-04-23T02:30:05.214Z,26.90
2023-04-23T02:32:32.134Z,25.43
2023-04-23T02:34:59.811Z,26.57
2023-04-23T02:37:27.214Z,26.60
2023-04-23T02:39:54.534Z,25.00
2023-04-23T02:42:21.388Z,26.20
2023-04-23T02:44:48.094Z,25.00
2023-04-23T02:47:14.971Z,25.30
2023-04-23T02:49:41.806Z,26.23
2023-04-23T02:52:09.312Z,25.63
2023-04-23T02:54:39.167Z,24.13
2023-04-23T02:57:06.252Z,24.47
2023-04-23T02:59:33.224Z,25.37
2023-04-23T03:02:02.576Z,24.17
2023-04-23T03:04:32.612Z,23.77
2023-04-23T03:06:59.372Z,24.40
2023-04-23T03:09:26.336Z,23.27
2023-04-23T03:11:53.356Z,22.57
2023-04-23T03:14:20.227Z,22.33
2023-04-23T03:16:46.925Z,22.27
2023-04-23T03:19:14.897Z,22.60
2023-04-23T03:21:41.951Z,22.87
2023-04-23T03:24:11.038Z,21.10
2023-04-23T03:26:37.842Z,22.37
2023-04-23T03:29:06.324Z,21.63
2023-04-23T03:31:33.412Z,22.87
2023-04-23T03:34:00.429Z,21.70
2023-04-23T03:36:33.120Z,22.27
2023-04-23T03:38:59.962Z,22.83
2023-04-23T03:41:26.814Z,21.07
2023-04-23T03:43:53.557Z,22.23
2023-04-23T03:46:22.474Z,21.73
2023-04-23T03:48:49.261Z,22.50
2023-04-23T03:51:16.132Z,22.53
2023-04-23T03:53:42.864Z,21.10
2023-04-23T03:56:09.834Z,21.83
2023-04-23T03:58:36.712Z,21.27
2023-04-23T04:01:03.709Z,22.27
2023-04-23T04:03:32.741Z,21.30
2023-04-23T04:05:59.703Z,20.70
2023-04-23T04:08:29.132Z,21.50
2023-04-23T04:10:58.718Z,20.97
2023-04-23T04:13:25.473Z,20.13
2023-04-23T04:15:52.293Z,20.70
2023-04-23T04:18:21.145Z,21.00
2023-04-23T04:20:47.948Z,19.80
2023-04-23T04:23:14.950Z,19.63
2023-04-23T04:25:42.314Z,19.80
2023-04-23T04:28:11.860Z,19.53
2023-04-23T04:30:39.594Z,19.40
2023-04-23T04:33:06.394Z,20.27
2023-04-23T04:35:33.152Z,19.03
2023-04-23T04:38:00.075Z,19.87
2023-04-23T04:40:28.745Z,20.67
2023-04-23T04:42:55.603Z,20.50
2023-04-23T04:45:23.283Z,19.33
2023-04-23T04:47:50.044Z,20.03
2023-04-23T04:50:17.167Z,19.43
2023-04-23T04:52:44.092Z,19.90
2023-04-23T04:55:10.896Z,18.60
2023-04-23T04:57:40.330Z,17.70
2023-04-23T05:00:28.175Z,19.00
2023-04-23T05:02:55.891Z,18.27
2023-04-23T05:05:23.877Z,17.67
2023-04-23T05:07:51.356Z,17.33
2023-04-23T05:10:18.290Z,17.43
2023-04-23T05:12:45.131Z,17.87
2023-04-23T05:15:13.715Z,17.10
2023-04-23T05:17:41.515Z,17.87
2023-04-23T05:20:10.916Z,18.37
2023-04-23T05:22:38.663Z,17.07
2023-04-23T05:25:06.537Z,18.13
2023-04-23T05:27:33.844Z,17.67
2023-04-23T05:30:05.931Z,17.93
2023-04-23T05:32:32.794Z,17.47
2023-04-23T05:35:00.351Z,17.73
2023-04-23T05:37:27.153Z,17.53
2023-04-23T05:39:53.999Z,17.37
2023-04-23T05:42:21.285Z,18.47
2023-04-23T05:44:48.036Z,17.87
2023-04-23T05:47:15.285Z,18.67
2023-04-23T05:49:42.025Z,16.67
2023-04-23T05:52:08.960Z,17.53
2023-04-23T05:54:35.737Z,17.17
2023-04-23T05:57:02.968Z,17.27
2023-04-23T05:59:29.750Z,15.77
2023-04-23T06:01:56.518Z,17.20
2023-04-23T06:04:23.753Z,16.70
2023-04-23T06:06:50.753Z,15.80
2023-04-23T06:09:17.640Z,17.13
2023-04-23T06:11:44.596Z,15.77
2023-04-23T06:14:11.450Z,15.73
2023-04-23T06:16:38.164Z,15.77
2023-04-23T06:19:04.912Z,15.50
2023-04-23T06:21:32.669Z,14.30
2023-04-23T06:24:02.303Z,14.70
2023-04-23T06:26:29.048Z,15.73
2023-04-23T06:28:56.391Z,13.93
2023-04-23T06:31:23.295Z,15.30
2023-04-23T06:33:50.192Z,13.57
2023-04-23T06:36:18.223Z,13.60
2023-04-23T06:38:45.089Z,12.87
2023-04-23T06:41:13.058Z,13.27
2023-04-23T06:43:39.862Z,13.27
2023-04-23T06:46:06.582Z,12.27
2023-04-23T06:48:33.784Z,11.50
2023-04-23T06:51:01.134Z,12.27
2023-04-23T06:53:28.045Z,11.80
2023-04-23T06:55:54.763Z,12.20
2023-04-23T06:58:23.389Z,11.50
2023-04-23T07:00:50.217Z,11.20
2023-04-23T07:03:17.525Z,10.23
2023-04-23T07:05:46.185Z,11.20
2023-04-23T07:08:13.646Z,10.20
2023-04-23T07:10:40.420Z,9.90
2023-04-23T07:13:07.530Z,9.83
2023-04-23T07:15:34.273Z,9.97
2023-04-23T07:18:01.234Z,10.47
2023-04-23T07:20:28.069Z,10.03
2023-04-23T07:22:55.142Z,9.23
2023-04-23T07:25:22.631Z,7.33
2023-04-23T07:27:49.504Z,7.87
2023-04-23T07:30:19.169Z,7.33
2023-04-23T07:32:46.600Z,7.20
2023-04-23T07:35:14.831Z,7.70
2023-04-23T07:37:41.613Z,6.33
2023-04-23T07:40:09.094Z,6.80
2023-04-23T07:42:35.888Z,6.50
2023-04-23T07:45:03.054Z,6.80
2023-04-23T07:47:29.891Z,6.00
2023-04-23T07:49:56.776Z,5.53
2023-04-23T07:52:23.581Z,5.20
2023-04-23T07:54:50.557Z,5.60
2023-04-23T07:57:17.742Z,5.50
2023-04-23T07:59:47.268Z,5.50
2023-04-23T08:02:17.012Z,5.07
2023-04-23T08:04:44.063Z,5.37
2023-04-23T08:07:11.722Z,5.83
2023-04-23T08:09:39.285Z,5.63
2023-04-23T08:12:06.705Z,5.30
2023-04-23T08:14:33.439Z,5.60
2023-04-23T08:17:00.384Z,4.93
2023-04-23T08:19:31.654Z,4.57
2023-04-23T08:21:58.412Z,5.17
2023-04-23T08:24:25.305Z,5.00
2023-04-23T08:26:52.270Z,4.93
2023-04-23T08:29:19.024Z,4.83
2023-04-23T08:31:46.179Z,4.07
2023-04-23T08:34:14.972Z,4.30
2023-04-23T08:36:41.801Z,4.10
2023-04-23T08:39:08.884Z,3.80
2023-04-23T08:41:42.913Z,4.87
2023-04-23T08:44:22.480Z,4.30
2023-04-23T08:46:51.598Z,3.97
2023-04-23T08:49:19.563Z,3.80
2023-04-23T08:51:52.517Z,3.53
2023-04-23T08:54:27.803Z,4.10
2023-04-23T08:56:58.390Z,3.10
2023-04-23T08:59:32.038Z,3.00
2023-04-23T09:02:07.997Z,2.90
2023-04-23T09:04:36.093Z,2.43
2023-04-23T09:07:04.569Z,2.50
2023-04-23T09:09:31.624Z,2.60
2023-04-23T09:11:58.911Z,2.63
2023-04-23T09:14:26.155Z,2.97
2023-04-23T09:16:54.056Z,2.63
2023-04-23T09:19:20.944Z,2.60
2023-04-23T09:21:47.712Z,2.47
2023-04-23T09:24:16.346Z,2.87
2023-04-23T09:26:48.451Z,2.60
2023-04-23T09:29:19.086Z,2.90
2023-04-23T09:31:49.457Z,2.00
2023-04-23T09:34:18.319Z,2.27
2023-04-23T09:36:47.403Z,2.90
2023-04-23T09:39:15.742Z,2.13
2023-04-23T09:41:46.595Z,1.93
2023-04-23T09:44:22.762Z,2.13
2023-04-23T09:46:50.127Z,1.93
2023-04-23T09:49:17.010Z,2.30
2023-04-23T09:51:49.016Z,1.87
2023-04-23T09:54:21.854Z,1.90
2023-04-23T09:57:01.333Z,1.30
2023-04-23T09:59:46.087Z,1.60
2023-04-23T10:02:15.736Z,1.60
2023-04-23T10:04:42.956Z,1.40
2023-04-23T10:07:20.122Z,1.57
2023-04-23T10:09:47.939Z,1.27
2023-04-23T10:14:49.546Z,1.40
2023-04-23T10:17:17.029Z,1.57
2023-04-23T10:19:44.578Z,1.43
2023-04-23T10:22:19.583Z,1.37
2023-04-23T10:24:49.579Z,1.57
2023-04-23T10:27:30.681Z,1.50
2023-04-23T10:30:06.552Z,1.47
2023-04-23T10:32:38.416Z,1.60
2023-04-23T10:35:07.317Z,1.90
2023-04-23T10:37:35.971Z,1.33
2023-04-23T10:40:13.002Z,1.20
2023-04-23T10:42:44.364Z,1.53
2023-04-23T10:45:25.592Z,1.50
2023-04-23T10:47:55.348Z,1.37
2023-04-23T10:50:30.422Z,1.70
2023-04-23T10:52:58.541Z,1.27
2023-04-23T10:55:30.822Z,1.00
2023-04-23T10:58:02.936Z,1.67
2023-04-23T11:00:46.026Z,1.00
2023-04-23T11:03:42.000Z,1.10
2023-04-23T11:06:15.662Z,1.40
2023-04-23T11:08:53.699Z,1.27
2023-04-23T11:11:39.751Z,1.10
2023-04-23T11:14:15.463Z,1.60
2023-04-23T11:16:42.528Z,1.50
2023-04-23T11:19:20.575Z,1.10
2023-04-23T11:22:02.325Z,1.57
2023-04-23T11:24:34.945Z,1.80
2023-04-23T11:27:02.660Z,1.20
2023-04-23T11:29:30.045Z,2.17
2023-04-23T11:34:28.253Z,1.13
2023-04-23T11:36:56.305Z,1.43
2023-04-23T11:39:26.972Z,1.47
2023-04-23T11:41:54.842Z,1.30
2023-04-23T11:44:22.296Z,1.50
2023-04-23T11:46:52.813Z,1.10
2023-04-23T11:49:20.142Z,0.83
2023-04-23T11:51:47.885Z,1.93
2023-04-23T11:54:14.982Z,1.20
2023-04-23T11:56:42.461Z,1.37
2023-04-23T11:59:09.736Z,1.40
2023-04-23T12:01:47.377Z,1.30
2023-04-23T12:04:20.824Z,1.20
2023-04-23T12:06:49.743Z,1.30
2023-04-23T12:09:18.379Z,1.50
2023-04-23T12:11:46.112Z,1.07
2023-04-23T12:14:14.931Z,0.73
2023-04-23T12:16:42.712Z,1.00
2023-04-23T12:19:17.269Z,1.20
2023-04-23T12:21:56.092Z,1.27
2023-04-23T12:24:24.214Z,1.00
2023-04-23T12:26:54.553Z,0.80
2023-04-23T12:29:23.086Z,1.20
2023-04-23T12:31:52.239Z,1.00
2023-04-23T12:34:20.584Z,0.90
2023-04-23T12:36:55.593Z,1.00
2023-04-23T12:39:30.893Z,1.13
2023-04-23T12:42:10.407Z,1.07
2023-04-23T12:44:38.688Z,1.10
2023-04-23T12:47:15.417Z,1.23
2023-04-23T12:49:43.280Z,0.90
2023-04-23T12:52:12.861Z,0.90
2023-04-23T12:54:40.901Z,1.10
2023-04-23T12:57:14.502Z,1.10
2023-04-23T12:59:41.809Z,0.90
2023-04-23T13:02:09.458Z,1.03
2023-04-23T13:04:36.771Z,1.07
2023-04-23T13:07:04.433Z,0.83
2023-04-23T13:09:31.299Z,0.90
2023-04-23T13:11:59.952Z,0.97
2023-04-23T13:14:27.926Z,0.90
2023-04-23T13:16:55.037Z,0.77
2023-04-23T13:19:28.062Z,1.00
2023-04-23T13:21:54.789Z,0.80
2023-04-23T13:24:21.561Z,0.80
2023-04-23T13:26:48.296Z,0.90
2023-04-23T13:29:17.886Z,0.80
2023-04-23T13:31:44.748Z,0.70
2023-04-23T13:34:14.641Z,0.70
2023-04-23T13:36:41.586Z,1.07
2023-04-23T13:39:09.394Z,0.90
2023-04-23T13:41:39.286Z,0.80
2023-04-23T13:44:06.172Z,0.80
2023-04-23T13:46:33.221Z,1.10
2023-04-23T13:49:01.212Z,0.73
2023-04-23T13:53:59.702Z,1.03
2023-04-23T13:56:30.828Z,1.47
2023-04-23T14:01:33.333Z,1.00
2023-04-23T14:04:00.323Z,0.70
2023-04-23T14:06:27.697Z,0.90
2023-04-23T14:08:54.556Z,1.23
2023-04-23T14:11:22.747Z,1.00
2023-04-23T14:13:49.511Z,0.80
2023-04-23T14:16:17.451Z,0.80
2023-04-23T14:18:45.760Z,0.90
2023-04-23T14:21:14.903Z,0.60
2023-04-23T14:23:50.781Z,0.70
2023-04-23T14:29:37.932Z,0.73
2023-04-23T14:32:04.831Z,0.63
2023-04-23T14:34:31.680Z,1.07
2023-04-23T14:36:58.550Z,0.90
2023-04-23T14:39:28.879Z,1.10
2023-04-23T14:41:56.314Z,0.90
2023-04-23T14:44:29.157Z,1.20
2023-04-23T14:46:56.516Z,1.10
2023-04-23T14:49:25.086Z,1.20
2023-04-23T14:51:57.749Z,1.23
2023-04-23T14:54:24.666Z,1.27
2023-04-23T14:56:52.090Z,1.40
2023-04-23T14:59:19.158Z,1.30
2023-04-23T15:01:46.070Z,1.00
2023-04-23T15:04:13.178Z,1.13
2023-04-23T15:06:42.854Z,1.17
2023-04-23T15:09:09.635Z,1.00
2023-04-23T15:11:37.931Z,1.17
2023-04-23T15:14:26.033Z,1.30
2023-04-23T15:16:52.972Z,1.20
2023-04-23T15:19:22.247Z,1.37
2023-04-23T15:21:49.307Z,1.60
2023-04-23T15:24:16.740Z,1.60
2023-04-23T15:26:44.127Z,1.63
2023-04-23T15:29:10.979Z,1.40
2023-04-23T15:31:38.863Z,1.37
2023-04-23T15:34:08.370Z,2.07
2023-04-23T15:36:35.784Z,1.77
2023-04-23T15:39:02.725Z,1.20
2023-04-23T15:41:29.537Z,1.90
2023-04-23T15:43:56.676Z,1.23
2023-04-23T15:46:23.611Z,1.40
2023-04-23T15:48:50.341Z,1.53
2023-04-23T15:51:17.766Z,1.83
2023-04-23T15:53:44.556Z,1.67
2023-04-23T15:56:11.583Z,1.40
2023-04-23T15:58:38.530Z,1.40
2023-04-23T16:01:07.168Z,1.20
2023-04-23T16:03:34.624Z,1.30
2023-04-23T16:06:01.799Z,1.20
2023-04-23T16:08:28.709Z,1.20
2023-04-23T16:10:57.106Z,1.20
2023-04-23T16:13:24.739Z,1.50
2023-04-23T16:15:51.639Z,1.33
2023-04-23T16:18:21.526Z,1.40
2023-04-23T16:20:50.837Z,1.23
2023-04-23T16:23:17.679Z,1.10
2023-04-23T16:25:44.887Z,1.20
2023-04-23T16:28:13.894Z,1.60
2023-04-23T16:30:40.837Z,1.37
2023-04-23T16:33:07.982Z,1.70
2023-04-23T16:35:36.808Z,1.70
2023-04-23T16:38:03.471Z,1.63
2023-04-23T16:40:30.188Z,1.67
2023-04-23T16:42:57.005Z,1.90
2023-04-23T16:45:23.882Z,2.13
2023-04-23T16:47:50.996Z,1.80
2023-04-23T16:50:17.948Z,2.37
2023-04-23T16:52:44.637Z,2.23
2023-04-23T16:55:11.461Z,2.40
2023-04-23T16:57:38.367Z,2.13
2023-04-23T17:00:05.871Z,1.83
2023-04-23T17:02:32.782Z,1.70
2023-04-23T17:04:59.678Z,1.60
2023-04-23T17:07:26.479Z,2.30
2023-04-23T17:09:53.240Z,2.23
2023-04-23T17:12:20.006Z,1.93
2023-04-23T17:14:46.806Z,2.03
2023-04-23T17:17:13.673Z,2.10
2023-04-23T17:19:40.722Z,2.30
2023-04-23T17:22:08.837Z,1.70
2023-04-23T17:24:37.020Z,1.90
2023-04-23T17:27:05.471Z,1.80
2023-04-23T17:29:32.458Z,1.90
2023-04-23T17:32:02.920Z,1.63
2023-04-23T17:34:29.865Z,1.97
2023-04-23T17:36:56.708Z,2.07
2023-04-23T17:39:25.450Z,2.20
2023-04-23T17:41:52.306Z,1.93
2023-04-23T17:44:19.238Z,1.93
2023-04-23T17:46:48.463Z,2.07
2023-04-23T17:49:18.849Z,2.10
2023-04-23T17:51:45.659Z,2.30
2023-04-23T17:54:12.484Z,2.20
2023-04-23T17:56:39.792Z,2.33
2023-04-23T17:59:06.659Z,2.70
2023-04-23T18:01:33.541Z,2.77
2023-04-23T18:04:00.625Z,2.80
2023-04-23T18:06:27.484Z,3.10
2023-04-23T18:08:54.241Z,3.13
2023-04-23T18:11:21.213Z,2.70
2023-04-23T18:13:53.509Z,2.80
2023-04-23T18:16:23.162Z,2.67
2023-04-23T18:18:49.970Z,2.87
2023-04-23T18:21:18.191Z,2.80
2023-04-23T18:23:45.597Z,2.70
2023-04-23T18:26:12.457Z,2.63
2023-04-23T18:28:39.206Z,2.53
2023-04-23T18:31:06.328Z,2.57
2023-04-23T18:33:52.036Z,2.40
2023-04-23T18:36:34.026Z,2.63
2023-04-23T18:39:03.995Z,2.47
2023-04-23T18:41:30.908Z,2.43
2023-04-23T18:44:00.061Z,2.70
2023-04-23T18:46:27.834Z,2.47
2023-04-23T18:49:17.531Z,2.43
2023-04-23T18:51:45.767Z,2.73
2023-04-23T18:54:17.636Z,2.63
2023-04-23T18:56:47.792Z,3.10
2023-04-23T18:59:14.937Z,2.73
2023-04-23T19:01:43.210Z,2.67
2023-04-23T19:04:10.433Z,2.60
2023-04-23T19:06:38.085Z,2.43
2023-04-23T19:09:05.054Z,2.63
2023-04-23T19:11:35.252Z,2.93
2023-04-23T19:14:05.128Z,2.80
2023-04-23T19:16:32.435Z,1.50
2023-04-23T19:19:02.144Z,1.37
2023-04-23T19:21:28.992Z,1.00
2023-04-23T19:23:58.872Z,0.80
2023-04-23T19:26:25.803Z,0.90
2023-04-23T19:28:52.696Z,0.53
2023-04-23T19:31:22.362Z,0.70
2023-04-23T19:33:49.274Z,0.37
2023-04-23T19:36:16.077Z,0.63
2023-04-23T19:38:43.001Z,0.60
2023-04-23T19:41:09.814Z,0.50
2023-04-23T19:43:36.615Z,0.40
2023-04-23T19:46:06.388Z,0.50
2023-04-23T19:48:33.289Z,0.43
2023-04-23T19:51:00.492Z,0.40
2023-04-23T19:53:27.774Z,0.60
2023-04-23T19:55:54.668Z,0.57
2023-04-23T19:58:21.472Z,0.50
2023-04-23T20:00:48.425Z,0.60
2023-04-23T20:03:15.687Z,0.40
2023-04-23T20:05:44.713Z,0.70
2023-04-23T20:08:16.364Z,0.47
2023-04-23T20:10:43.611Z,0.30
2023-04-23T20:13:10.457Z,0.57
2023-04-23T20:15:37.649Z,0.50
2023-04-23T20:18:05.434Z,0.40
2023-04-23T20:20:33.970Z,0.30
2023-04-23T20:23:00.858Z,0.40
2023-04-23T20:25:27.762Z,0.40
2023-04-23T20:27:57.006Z,0.30
2023-04-23T20:30:23.894Z,0.30
2023-04-23T20:32:50.778Z,0.23
2023-04-23T20:35:17.568Z,0.20
2023-04-23T20:37:44.354Z,0.50
2023-04-23T20:40:11.108Z,0.30
2023-04-23T20:42:39.397Z,0.20
2023-04-23T20:45:09.598Z,0.30
2023-04-23T20:47:36.740Z,0.50
2023-04-23T20:50:03.767Z,0.40
2023-04-23T20:52:30.668Z,0.70
2023-04-23T20:55:00.197Z,0.73
2023-04-23T20:57:27.130Z,1.10
2023-04-23T20:59:56.635Z,1.50
2023-04-23T21:02:23.661Z,2.27
2023-04-23T21:04:50.484Z,2.07
2023-04-23T21:07:17.367Z,1.90
2023-04-23T21:09:44.675Z,1.70
2023-04-23T21:12:11.967Z,1.40
2023-04-23T21:14:38.803Z,1.37
2023-04-23T21:17:05.765Z,1.00
2023-04-23T21:19:32.517Z,0.80
2023-04-23T21:21:59.321Z,0.60
2023-04-23T21:24:26.170Z,0.67
2023-04-23T21:26:53.028Z,0.67
2023-04-23T21:29:19.854Z,0.90
2023-04-23T21:31:48.263Z,0.60
2023-04-23T21:34:15.506Z,0.40
2023-04-23T21:36:44.638Z,0.27
2023-04-23T21:39:13.203Z,0.30
2023-04-23T21:41:40.411Z,0.20
2023-04-23T21:44:08.687Z,0.30
2023-04-23T21:46:35.575Z,0.27
2023-04-23T21:49:02.656Z,0.10
2023-04-23T21:51:30.079Z,0.20
2023-04-23T21:53:57.063Z,0.23
2023-04-23T21:56:24.112Z,0.40
2023-04-23T21:58:51.047Z,0.20
2023-04-23T22:01:18.470Z,0.47
2023-04-23T22:03:46.614Z,0.23
2023-04-23T22:06:15.626Z,0.23
2023-04-23T22:08:44.765Z,0.60
2023-04-23T22:11:12.499Z,0.60
2023-04-23T22:13:39.553Z,0.70
2023-04-23T22:16:16.398Z,0.83
2023-04-23T22:18:47.825Z,1.13
2023-04-23T22:21:14.653Z,1.27
2023-04-23T22:23:41.419Z,1.80
2023-04-23T22:26:08.240Z,2.17
2023-04-23T22:28:34.968Z,2.50
2023-04-23T22:31:01.847Z,2.40
2023-04-23T22:33:29.441Z,2.23
2023-04-23T22:35:56.694Z,2.90
2023-04-23T22:38:23.496Z,2.93
2023-04-23T22:40:50.588Z,3.10
2023-04-23T22:43:17.304Z,3.17
2023-04-23T22:45:46.720Z,3.30
2023-04-23T22:48:13.729Z,3.67
2023-04-23T22:50:40.488Z,3.67
2023-04-23T22:53:07.306Z,3.73
2023-04-23T22:55:34.719Z,3.77
2023-04-23T22:58:01.508Z,3.27
2023-04-23T23:00:28.389Z,3.43
2023-04-23T23:02:55.978Z,3.97
2023-04-23T23:05:27.971Z,3.87
2023-04-23T23:07:55.638Z,3.90
2023-04-23T23:10:23.103Z,4.30
2023-04-23T23:12:50.530Z,4.43
2023-04-23T23:15:17.392Z,5.57
2023-04-23T23:17:44.232Z,4.70
2023-04-23T23:20:14.762Z,5.63
2023-04-23T23:22:41.521Z,5.60
2023-04-23T23:25:11.815Z,4.63
2023-04-23T23:27:38.581Z,4.20
2023-04-23T23:30:06.267Z,3.60
2023-04-23T23:32:33.662Z,3.20
2023-04-23T23:35:00.504Z,3.17
2023-04-23T23:37:27.270Z,3.60
2023-04-23T23:39:57.149Z,4.17
2023-04-23T23:42:23.992Z,4.43
2023-04-23T23:44:50.909Z,4.73
2023-04-23T23:47:17.714Z,4.43
2023-04-23T23:49:44.658Z,4.47
2023-04-23T23:52:11.652Z,5.50
2023-04-23T23:54:38.517Z,6.57
2023-04-23T23:57:05.341Z,9.50
2023-04-23T23:59:32.102Z,9.43
